createdAt,value
2019-02-20T00:01:18.487Z,31.93
2019-02-20T00:03:48.354Z,30.37
2019-02-20T00:06:32.468Z,31.80
2019-02-20T00:09:17.883Z,28.57
2019-02-20T00:11:59.619Z,33.47
2019-02-20T00:14:35.053Z,31.07
2019-02-20T00:17:11.538Z,32.47
2019-02-20T00:19:40.681Z,34.00
2019-02-20T00:22:10.679Z,34.90
2019-02-20T00:24:42.133Z,41.63
2019-02-20T00:27:16.819Z,33.40
2019-02-20T00:29:45.276Z,33.30
2019-02-20T00:32:19.301Z,35.77
2019-02-20T00:34:53.552Z,35.23
2019-02-20T00:37:22.695Z,37.63
2019-02-20T00:39:56.140Z,37.17
2019-02-20T00:42:35.212Z,37.83
2019-02-20T00:45:32.215Z,36.63
2019-02-20T00:48:18.876Z,37.43
2019-02-20T00:50:49.088Z,36.73
2019-02-20T00:53:43.066Z,34.33
2019-02-20T00:56:12.136Z,42.30
2019-02-20T00:58:59.578Z,37.40
2019-02-20T01:01:46.573Z,38.73
2019-02-20T01:04:21.858Z,38.23
2019-02-20T01:06:52.847Z,38.03
2019-02-20T01:09:30.141Z,39.80
2019-02-20T01:12:09.268Z,34.20
2019-02-20T01:15:02.036Z,36.80
2019-02-20T01:17:39.290Z,38.30
2019-02-20T01:20:33.906Z,40.53
2019-02-20T01:26:01.246Z,42.07
2019-02-20T01:28:40.961Z,38.73
2019-02-20T01:31:09.936Z,38.67
2019-02-20T01:33:45.183Z,39.90
2019-02-20T01:39:09.281Z,40.60
2019-02-20T01:41:53.750Z,40.00
2019-02-20T01:44:22.618Z,40.60
2019-02-20T01:47:02.245Z,40.07
2019-02-20T01:49:52.769Z,39.63
2019-02-20T01:52:25.714Z,43.83
2019-02-20T01:55:13.996Z,41.93
2019-02-20T01:57:43.092Z,44.40
2019-02-20T02:00:14.590Z,40.30
2019-02-20T02:02:56.457Z,46.33
2019-02-20T02:05:25.271Z,41.10
2019-02-20T02:08:01.515Z,43.47
2019-02-20T02:10:30.370Z,42.70
2019-02-20T02:13:19.478Z,46.57
2019-02-20T02:15:51.915Z,46.23
2019-02-20T02:18:21.003Z,44.90
2019-02-20T02:20:57.413Z,41.13
2019-02-20T02:23:47.620Z,46.50
2019-02-20T02:26:39.141Z,42.63
2019-02-20T02:29:10.463Z,44.23
2019-02-20T02:31:39.468Z,45.97
2019-02-20T02:34:08.443Z,43.73
2019-02-20T02:36:39.286Z,45.30
2019-02-20T02:39:08.167Z,46.33
2019-02-20T02:41:37.110Z,46.03
2019-02-20T02:44:07.641Z,47.10
2019-02-20T02:46:36.559Z,49.27
2019-02-20T02:49:05.494Z,48.23
2019-02-20T02:55:00.596Z,48.27
2019-02-20T02:57:29.471Z,47.37
2019-02-20T03:00:17.503Z,48.90
2019-02-20T03:02:46.387Z,50.10
2019-02-20T03:05:17.766Z,50.33
2019-02-20T03:07:59.033Z,46.20
2019-02-20T03:10:29.818Z,47.73
2019-02-20T03:12:58.624Z,48.00
2019-02-20T03:15:32.780Z,54.20
2019-02-20T03:18:06.246Z,49.50
2019-02-20T03:20:39.090Z,52.97
2019-02-20T03:23:28.309Z,47.57
2019-02-20T03:26:40.003Z,49.23
2019-02-20T03:29:10.750Z,42.93
2019-02-20T03:32:05.962Z,47.27
2019-02-20T03:35:16.117Z,49.23
2019-02-20T03:37:54.287Z,49.23
2019-02-20T03:41:50.185Z,47.57
2019-02-20T03:46:11.028Z,44.50
2019-02-20T03:48:47.610Z,46.10
2019-02-20T03:51:36.017Z,44.23
2019-02-20T03:54:44.264Z,43.07
2019-02-20T03:57:16.441Z,41.77
2019-02-20T03:59:45.288Z,43.53
2019-02-20T04:02:32.956Z,42.17
2019-02-20T04:05:51.091Z,40.43
2019-02-20T04:08:23.015Z,42.23
2019-02-20T04:11:27.943Z,41.47
2019-02-20T04:14:00.714Z,38.97
2019-02-20T04:16:32.876Z,39.17
2019-02-20T04:19:01.828Z,38.90
2019-02-20T04:21:33.617Z,38.43
2019-02-20T04:24:03.900Z,37.90
2019-02-20T04:26:55.090Z,36.83
2019-02-20T04:29:35.910Z,34.50
2019-02-20T04:32:06.134Z,35.63
2019-02-20T04:34:34.983Z,35.37
2019-02-20T04:37:08.195Z,33.87
2019-02-20T04:39:53.719Z,34.57
2019-02-20T04:42:24.209Z,33.33
2019-02-20T04:44:53.102Z,30.67
2019-02-20T04:47:31.226Z,32.30
2019-02-20T04:50:03.600Z,32.37
2019-02-20T04:52:33.522Z,31.00
2019-02-20T04:55:03.652Z,31.60
2019-02-20T04:57:42.549Z,30.73
2019-02-20T05:00:13.537Z,30.23
2019-02-20T05:02:42.317Z,30.10
2019-02-20T05:05:13.971Z,29.37
2019-02-20T05:07:53.418Z,28.17
2019-02-20T05:10:22.348Z,29.70
2019-02-20T05:12:51.186Z,26.20
2019-02-20T05:15:19.976Z,26.57
2019-02-20T05:18:01.728Z,27.80
2019-02-20T05:20:30.840Z,27.00
2019-02-20T05:25:36.144Z,25.83
2019-02-20T05:28:06.610Z,26.60
2019-02-20T05:30:39.928Z,24.70
2019-02-20T05:33:09.287Z,24.63
2019-02-20T05:35:41.452Z,24.37
2019-02-20T05:38:41.399Z,23.30
2019-02-20T05:41:17.703Z,23.97
2019-02-20T05:44:03.738Z,23.33
2019-02-20T05:46:35.597Z,22.30
2019-02-20T05:49:27.444Z,20.70
2019-02-20T05:51:56.343Z,23.43
2019-02-20T05:54:34.245Z,21.17
2019-02-20T05:56:56.729Z,20.23
2019-02-20T05:59:28.304Z,22.20
2019-02-20T06:02:00.888Z,21.60
2019-02-20T06:04:32.350Z,18.13
2019-02-20T06:07:30.702Z,20.67
2019-02-20T06:10:05.264Z,21.17
2019-02-20T06:12:49.186Z,19.60
2019-02-20T06:15:21.136Z,18.43
2019-02-20T06:17:50.014Z,19.13
2019-02-20T06:23:16.972Z,16.80
2019-02-20T06:26:09.073Z,17.37
2019-02-20T06:28:30.854Z,18.10
2019-02-20T06:31:08.402Z,16.80
2019-02-20T06:33:40.899Z,16.00
2019-02-20T06:36:27.955Z,19.10
2019-02-20T06:38:59.897Z,22.50
2019-02-20T06:41:38.307Z,23.10
2019-02-20T06:44:01.678Z,20.80
2019-02-20T06:46:34.187Z,18.67
2019-02-20T06:49:03.179Z,17.80
2019-02-20T06:51:33.939Z,16.63
2019-02-20T06:54:04.505Z,13.67
2019-02-20T06:56:33.464Z,15.17
2019-02-20T06:59:27.240Z,18.63
2019-02-20T07:02:10.506Z,14.47
2019-02-20T07:04:50.792Z,16.97
2019-02-20T07:08:10.188Z,16.70
2019-02-20T07:11:30.363Z,13.57
2019-02-20T07:14:29.136Z,18.53
2019-02-20T07:20:44.019Z,14.47
2019-02-20T07:24:14.096Z,14.97
2019-02-20T07:27:42.129Z,11.53
2019-02-20T07:30:27.992Z,13.27
2019-02-20T07:33:00.427Z,13.33
2019-02-20T07:35:29.508Z,10.40
2019-02-20T07:38:05.961Z,12.80
2019-02-20T07:40:36.654Z,11.27
2019-02-20T07:43:13.204Z,13.03
2019-02-20T07:45:42.433Z,12.47
2019-02-20T07:48:11.642Z,12.87
2019-02-20T07:50:43.425Z,12.70
2019-02-20T07:53:12.681Z,13.77
2019-02-20T07:55:41.612Z,11.80
2019-02-20T07:58:22.929Z,15.00
2019-02-20T08:00:54.312Z,12.47
2019-02-20T08:03:29.595Z,14.27
2019-02-20T08:05:59.270Z,12.90
2019-02-20T08:08:28.269Z,19.10
2019-02-20T08:11:16.203Z,14.33
2019-02-20T08:13:45.441Z,13.70
2019-02-20T08:16:14.364Z,17.37
2019-02-20T08:18:45.288Z,15.40
2019-02-20T08:21:20.816Z,18.97
2019-02-20T08:26:48.408Z,17.83
2019-02-20T08:29:20.109Z,16.97
2019-02-20T08:31:49.418Z,18.37
2019-02-20T08:34:18.666Z,18.67
2019-02-20T08:36:48.706Z,19.83
2019-02-20T08:39:19.190Z,18.87
2019-02-20T08:42:04.084Z,20.10
2019-02-20T08:44:40.598Z,19.83
2019-02-20T08:47:09.520Z,21.57
2019-02-20T08:49:38.542Z,18.00
2019-02-20T08:52:07.434Z,18.07
2019-02-20T08:54:36.363Z,20.17
2019-02-20T08:57:19.257Z,17.60
2019-02-20T08:59:51.857Z,18.23
2019-02-20T09:02:21.542Z,19.67
2019-02-20T09:04:50.379Z,17.27
2019-02-20T09:07:19.210Z,17.63
2019-02-20T09:10:06.035Z,19.83
2019-02-20T09:12:35.023Z,18.83
2019-02-20T09:15:08.292Z,19.13
2019-02-20T09:20:32.365Z,18.30
2019-02-20T09:23:01.810Z,18.90
2019-02-20T09:25:45.298Z,18.23
2019-02-20T09:28:18.881Z,19.13
2019-02-20T09:30:47.735Z,20.40
2019-02-20T09:33:21.281Z,19.77
2019-02-20T09:35:57.542Z,19.07
2019-02-20T09:38:29.046Z,17.23
2019-02-20T09:41:06.830Z,20.77
2019-02-20T09:43:36.610Z,17.37
2019-02-20T09:46:13.024Z,17.97
2019-02-20T09:48:47.378Z,18.30
2019-02-20T09:51:16.564Z,17.63
2019-02-20T09:56:58.037Z,18.40
2019-02-20T09:59:28.172Z,19.30
2019-02-20T10:02:20.826Z,20.70
2019-02-20T10:04:53.000Z,18.40
2019-02-20T10:07:21.930Z,19.00
2019-02-20T10:09:57.387Z,19.87
2019-02-20T10:12:26.332Z,18.97
2019-02-20T10:14:55.220Z,18.93
2019-02-20T10:17:34.773Z,18.33
2019-02-20T10:20:13.240Z,17.43
2019-02-20T10:22:43.895Z,18.37
2019-02-20T10:27:51.656Z,20.17
2019-02-20T10:30:21.022Z,16.80
2019-02-20T10:32:51.196Z,16.20
2019-02-20T10:35:20.394Z,17.13
2019-02-20T10:37:49.328Z,18.87
2019-02-20T10:40:30.347Z,16.23
2019-02-20T10:43:06.517Z,15.83
2019-02-20T10:45:35.634Z,16.80
2019-02-20T10:48:11.994Z,16.20
2019-02-20T10:50:43.248Z,16.27
2019-02-20T10:53:12.860Z,15.73
2019-02-20T10:55:49.619Z,17.40
2019-02-20T10:58:22.553Z,14.30
2019-02-20T11:00:58.717Z,14.37
2019-02-20T11:03:29.603Z,14.40
2019-02-20T11:06:00.079Z,15.10
2019-02-20T11:08:30.408Z,12.83
2019-02-20T11:13:57.216Z,15.17
2019-02-20T11:16:26.212Z,11.37
2019-02-20T11:18:55.162Z,13.77
2019-02-20T11:21:53.323Z,12.27
2019-02-20T11:24:43.060Z,12.33
2019-02-20T11:27:19.694Z,12.33
2019-02-20T11:29:48.679Z,10.80
2019-02-20T11:32:21.160Z,11.83
2019-02-20T11:35:01.790Z,11.13
2019-02-20T11:37:30.988Z,10.70
2019-02-20T11:43:14.835Z,10.50
2019-02-20T11:46:13.324Z,11.03
2019-02-20T11:48:43.466Z,10.93
2019-02-20T11:51:12.315Z,11.80
2019-02-20T11:53:43.188Z,9.77
2019-02-20T11:56:12.380Z,9.83
2019-02-20T11:59:13.293Z,10.97
2019-02-20T12:02:18.858Z,11.20
2019-02-20T12:04:47.803Z,10.90
2019-02-20T12:07:26.882Z,10.07
2019-02-20T12:10:12.809Z,9.00
2019-02-20T12:12:41.942Z,9.50
2019-02-20T12:15:10.882Z,8.53
2019-02-20T12:17:39.912Z,9.47
2019-02-20T12:20:26.342Z,7.77
2019-02-20T12:23:09.786Z,8.10
2019-02-20T12:25:38.603Z,7.50
2019-02-20T12:28:30.201Z,9.07
2019-02-20T12:30:59.080Z,9.20
2019-02-20T12:33:52.179Z,7.67
2019-02-20T12:36:39.249Z,7.83
2019-02-20T12:39:14.889Z,8.67
2019-02-20T12:41:45.311Z,8.27
2019-02-20T12:47:02.465Z,7.57
2019-02-20T12:49:33.446Z,7.13
2019-02-20T12:52:04.086Z,9.80
2019-02-20T12:54:48.187Z,7.47
2019-02-20T12:57:17.058Z,7.57
2019-02-20T12:59:47.443Z,6.27
2019-02-20T13:02:37.905Z,7.13
2019-02-20T13:05:10.411Z,8.07
2019-02-20T13:10:32.206Z,6.77
2019-02-20T13:13:01.268Z,7.43
2019-02-20T13:18:38.548Z,7.03
2019-02-20T13:21:13.452Z,7.13
2019-02-20T13:23:45.407Z,6.00
2019-02-20T13:26:17.236Z,7.53
2019-02-20T13:28:46.007Z,5.97
2019-02-20T13:31:22.405Z,5.93
2019-02-20T13:33:52.394Z,6.13
2019-02-20T13:39:19.843Z,6.37
2019-02-20T13:41:49.056Z,5.57
2019-02-20T13:44:25.595Z,6.73
2019-02-20T13:46:56.807Z,6.43
2019-02-20T13:49:25.684Z,6.63
2019-02-20T13:54:54.243Z,7.23
2019-02-20T13:57:37.110Z,5.73
2019-02-20T14:00:07.083Z,5.83
2019-02-20T14:02:37.192Z,7.53
2019-02-20T14:10:55.840Z,5.80
2019-02-20T14:13:25.155Z,6.80
2019-02-20T14:15:54.387Z,6.87
2019-02-20T14:18:23.356Z,6.27
2019-02-20T14:20:52.210Z,5.60
2019-02-20T14:23:29.773Z,8.23
2019-02-20T14:25:59.177Z,7.67
2019-02-20T14:28:29.369Z,6.00
2019-02-20T14:30:58.775Z,5.97
2019-02-20T14:36:16.115Z,7.73
2019-02-20T14:38:45.571Z,8.57
2019-02-20T14:41:15.789Z,6.43
2019-02-20T14:43:44.800Z,7.10
2019-02-20T14:46:13.750Z,6.37
2019-02-20T14:48:53.043Z,6.77
2019-02-20T14:52:02.214Z,7.70
2019-02-20T14:54:31.542Z,5.80
2019-02-20T14:57:03.394Z,8.20
2019-02-20T15:00:00.599Z,6.43
2019-02-20T15:02:30.574Z,6.07
2019-02-20T15:05:00.341Z,7.20
2019-02-20T15:07:33.834Z,6.10
2019-02-20T15:10:04.965Z,7.17
2019-02-20T15:12:46.729Z,7.67
2019-02-20T15:15:16.207Z,7.67
2019-02-20T15:18:04.360Z,8.13
2019-02-20T15:20:35.672Z,6.70
2019-02-20T15:23:04.592Z,6.03
2019-02-20T15:25:33.525Z,6.73
2019-02-20T15:28:04.542Z,7.07
2019-02-20T15:30:33.276Z,7.20
2019-02-20T15:33:02.397Z,7.17
2019-02-20T15:35:31.319Z,7.50
2019-02-20T15:38:00.210Z,6.47
2019-02-20T15:40:29.455Z,6.57
2019-02-20T15:43:13.766Z,8.17
2019-02-20T15:46:05.864Z,6.43
2019-02-20T15:49:00.274Z,7.60
2019-02-20T15:51:36.589Z,8.33
2019-02-20T15:54:05.845Z,7.20
2019-02-20T15:56:56.251Z,7.17
2019-02-20T15:59:25.776Z,7.57
2019-02-20T16:01:54.685Z,5.83
2019-02-20T16:04:24.306Z,6.53
2019-02-20T16:06:55.318Z,7.23
2019-02-20T16:09:43.141Z,6.60
2019-02-20T16:12:13.123Z,7.57
2019-02-20T16:15:05.327Z,6.23
2019-02-20T16:17:34.322Z,6.80
2019-02-20T16:20:03.209Z,5.90
2019-02-20T16:22:32.363Z,7.20
2019-02-20T16:25:03.178Z,6.43
2019-02-20T16:27:33.756Z,5.87
2019-02-20T16:30:09.891Z,5.03
2019-02-20T16:32:46.997Z,6.80
2019-02-20T16:35:18.163Z,5.57
2019-02-20T16:37:47.290Z,5.33
2019-02-20T16:40:17.076Z,5.43
2019-02-20T16:42:46.663Z,5.17
2019-02-20T16:45:23.569Z,5.87
2019-02-20T16:47:53.122Z,8.00
2019-02-20T16:50:21.991Z,5.57
2019-02-20T16:52:52.574Z,6.60
2019-02-20T16:55:22.673Z,6.10
2019-02-20T17:00:47.352Z,5.53
2019-02-20T17:03:31.464Z,5.27
2019-02-20T17:06:12.644Z,5.97
2019-02-20T17:08:49.077Z,6.70
2019-02-20T17:11:33.505Z,7.27
2019-02-20T17:14:02.529Z,5.50
2019-02-20T17:16:52.127Z,6.80
2019-02-20T17:19:21.141Z,5.40
2019-02-20T17:21:50.255Z,4.50
2019-02-20T17:24:19.291Z,6.57
2019-02-20T17:26:51.273Z,7.30
2019-02-20T17:29:21.404Z,6.83
2019-02-20T17:32:09.893Z,5.27
2019-02-20T17:34:41.277Z,5.73
2019-02-20T17:37:10.435Z,6.87
2019-02-20T17:40:00.615Z,5.53
2019-02-20T17:42:44.947Z,5.93
2019-02-20T17:45:13.992Z,6.50
2019-02-20T17:47:43.444Z,7.60
2019-02-20T17:50:13.771Z,6.80
2019-02-20T17:52:50.200Z,6.60
2019-02-20T17:55:21.974Z,7.80
2019-02-20T17:57:51.100Z,7.30
2019-02-20T18:03:07.832Z,6.37
2019-02-20T18:05:36.965Z,7.07
2019-02-20T18:08:07.583Z,9.47
2019-02-20T18:10:37.511Z,6.63
2019-02-20T18:13:06.362Z,7.03
2019-02-20T18:15:37.046Z,9.13
2019-02-20T18:18:48.304Z,5.67
2019-02-20T18:21:18.763Z,6.97
2019-02-20T18:23:51.108Z,7.37
2019-02-20T18:26:22.623Z,5.83
2019-02-20T18:28:53.235Z,6.53
2019-02-20T18:31:23.740Z,7.00
2019-02-20T18:34:07.334Z,6.97
2019-02-20T18:36:36.461Z,7.37
2019-02-20T18:39:06.386Z,6.67
2019-02-20T18:41:35.355Z,6.17
2019-02-20T18:44:12.054Z,6.83
2019-02-20T18:46:56.117Z,7.27
2019-02-20T18:49:25.531Z,6.47
2019-02-20T18:51:56.209Z,8.63
2019-02-20T18:54:25.584Z,6.43
2019-02-20T18:56:54.687Z,18.33
2019-02-20T18:59:24.172Z,8.27
2019-02-20T19:01:56.620Z,11.73
2019-02-20T19:04:39.264Z,14.07
2019-02-20T19:07:13.752Z,14.93
2019-02-20T19:09:57.372Z,7.60
2019-02-20T19:44:26.020Z,16.97
2019-02-20T19:47:29.957Z,13.40
2019-02-20T19:50:34.504Z,16.77
2019-02-20T19:53:40.815Z,13.70
2019-02-20T19:56:45.651Z,12.27
2019-02-20T19:59:48.446Z,15.27
2019-02-20T20:02:53.051Z,13.07
2019-02-20T20:05:51.563Z,13.53
2019-02-20T20:08:59.852Z,13.73
2019-02-20T20:12:16.251Z,15.53
2019-02-20T20:15:27.083Z,17.43
2019-02-20T20:18:36.941Z,15.40
2019-02-20T20:21:42.998Z,16.13
2019-02-20T20:24:45.960Z,18.00
2019-02-20T20:27:58.145Z,20.03
2019-02-20T20:31:25.099Z,18.10
2019-02-20T20:34:10.437Z,19.77
2019-02-20T20:37:41.618Z,25.23
2019-02-20T20:40:24.402Z,22.10
2019-02-20T20:43:28.014Z,21.77
2019-02-20T20:46:27.450Z,24.10
2019-02-20T20:49:21.536Z,24.93
2019-02-20T20:52:33.173Z,23.23
2019-02-20T20:56:10.759Z,22.67
2019-02-20T20:59:27.340Z,25.47
2019-02-20T21:02:26.536Z,22.73
2019-02-20T21:05:48.951Z,25.50
2019-02-20T21:08:49.167Z,24.53
2019-02-20T21:12:06.921Z,27.57
2019-02-20T21:14:51.016Z,28.37
2019-02-20T21:17:57.377Z,28.17
2019-02-20T21:21:03.622Z,30.73
2019-02-20T21:24:26.159Z,29.10
2019-02-20T21:27:36.335Z,30.83
2019-02-20T21:30:58.665Z,29.00
2019-02-20T21:34:33.997Z,31.97
2019-02-20T21:36:50.807Z,33.23
2019-02-20T21:40:02.190Z,33.40
2019-02-20T21:43:05.912Z,35.07
2019-02-20T21:46:21.965Z,34.37
2019-02-20T21:49:12.600Z,34.77
2019-02-20T21:52:18.393Z,37.53
2019-02-20T21:55:22.296Z,37.77
2019-02-20T22:01:42.948Z,40.70
2019-02-20T22:04:46.197Z,38.80
2019-02-20T22:08:03.951Z,41.63
2019-02-20T22:11:30.830Z,39.43
2019-02-20T22:14:19.709Z,42.87
2019-02-20T22:17:29.132Z,41.47
2019-02-20T22:20:40.446Z,45.77
2019-02-20T22:23:56.711Z,44.93
2019-02-20T22:27:04.890Z,44.53
2019-02-20T22:30:12.813Z,42.30
2019-02-20T22:33:15.805Z,40.93
2019-02-20T22:36:26.282Z,42.50
2019-02-20T22:39:35.051Z,40.27
2019-02-20T22:42:28.552Z,46.93
2019-02-20T22:48:52.250Z,43.50
2019-02-20T22:52:11.988Z,44.40
2019-02-20T22:55:11.260Z,43.23
2019-02-20T22:58:13.278Z,43.33
2019-02-20T23:01:25.925Z,42.37
2019-02-20T23:04:42.689Z,43.07
2019-02-20T23:08:00.369Z,46.40
2019-02-20T23:11:07.836Z,45.03
2019-02-20T23:14:14.772Z,46.33
2019-02-20T23:16:45.140Z,43.17
2019-02-20T23:19:20.014Z,43.40
2019-02-20T23:22:03.799Z,44.87
2019-02-20T23:24:33.713Z,46.47
2019-02-20T23:27:05.204Z,42.83
2019-02-20T23:29:34.147Z,43.17
2019-02-20T23:32:20.536Z,43.47
2019-02-20T23:34:50.347Z,43.37
2019-02-20T23:37:22.655Z,42.17
2019-02-20T23:40:13.166Z,40.63
2019-02-20T23:43:01.663Z,38.77
2019-02-20T23:45:30.545Z,41.27
2019-02-20T23:48:00.077Z,39.00
2019-02-20T23:50:39.534Z,39.23
2019-02-20T23:53:10.892Z,39.43
2019-02-20T23:55:48.500Z,36.77
2019-02-20T23:58:18.448Z,38.23
